Time;durP1;ratioP1;P1;durP2;ratioP2;P2;SDS_P1;SDS_P2;PMS_P1;PMS_P2;Temp;Humidity;BMP_temperature;BMP_pressure;BME280_temperature;BME280_humidity;BME280_pressure;Samples;Min_cycle;Max_cycle;Signal;HPM_P1;HPM_P2
2022/10/09 00:01:57;;;;;;;7.15;4.35;;;;;;;12.76;66.46;100792.53;4990659;28;20033;-70
2022/10/09 00:04:22;;;;;;;10.55;4.50;;;;;;;12.66;66.56;100783.59;4989255;28;20037;-70
2022/10/09 00:06:48;;;;;;;10.55;4.30;;;;;;;12.64;67.07;100782.66;4991351;28;20401;-71
2022/10/09 00:09:13;;;;;;;10.95;5.10;;;;;;;12.78;67.22;100788.28;4991070;28;20026;-68
2022/10/09 00:11:39;;;;;;;10.75;4.47;;;;;;;12.73;67.16;100751.84;4991042;28;20045;-69
2022/10/09 00:14:04;;;;;;;8.80;4.72;;;;;;;12.76;66.64;100738.13;4991041;28;20039;-73
2022/10/09 00:16:30;;;;;;;12.02;4.40;;;;;;;12.91;66.42;100771.41;4991535;28;20081;-68
2022/10/09 00:18:56;;;;;;;12.15;4.32;;;;;;;12.76;66.31;100756.25;4991072;28;20038;-69
2022/10/09 00:21:27;;;;;;;7.40;4.53;;;;;;;12.71;66.16;100768.19;4990951;28;20034;-71
2022/10/09 00:23:55;;;;;;;8.30;4.28;;;;;;;12.75;66.26;100770.06;4972353;28;20137;-71
2022/10/09 00:26:21;;;;;;;10.75;4.53;;;;;;;12.70;65.92;100769.91;4991305;28;20385;-69
2022/10/09 00:28:47;;;;;;;9.13;4.22;;;;;;;12.48;65.84;100750.16;4991161;28;20080;-70
2022/10/09 00:31:13;;;;;;;7.60;4.20;;;;;;;12.49;64.98;100767.47;4990843;28;20054;-72
2022/10/09 00:33:39;;;;;;;8.30;3.83;;;;;;;12.03;64.56;100719.31;4991213;28;20038;-69
2022/10/09 00:36:07;;;;;;;10.30;4.28;;;;;;;12.31;65.73;100767.72;4990750;28;20455;-71
2022/10/09 00:38:33;;;;;;;11.82;4.32;;;;;;;12.23;66.22;100776.94;4990487;28;20042;-71
2022/10/09 00:40:59;;;;;;;8.32;4.40;;;;;;;12.05;66.46;100766.78;4991068;28;20022;-71
2022/10/09 00:43:40;;;;;;;9.27;4.47;;;;;;;12.06;65.93;100766.88;4990859;28;20066;-71
2022/10/09 00:46:15;;;;;;;9.93;4.75;;;;;;;12.05;65.51;100774.56;4972603;28;20035;-71
2022/10/09 00:48:41;;;;;;;7.65;4.55;;;;;;;11.90;66.02;100767.09;4991116;28;20030;-71
2022/10/09 00:51:07;;;;;;;10.05;4.95;;;;;;;11.64;66.79;100752.38;4990293;28;20023;-71
2022/10/09 00:53:32;;;;;;;10.65;4.55;;;;;;;11.60;67.22;100757.38;4991004;28;20120;-71
2022/10/09 00:55:58;;;;;;;7.75;4.32;;;;;;;11.53;68.15;100764.03;4991095;28;20472;-71
2022/10/09 00:58:24;;;;;;;12.77;4.70;;;;;;;11.43;69.58;100754.19;4991160;28;20022;-70
2022/10/09 01:00:50;;;;;;;8.00;4.25;;;;;;;11.38;70.67;100760.88;4990822;28;20030;-70
2022/10/09 01:03:16;;;;;;;9.88;5.35;;;;;;;11.09;71.89;100727.00;4990796;28;20034;-70
2022/10/09 01:06:03;;;;;;;9.23;4.90;;;;;;;11.31;72.77;100762.31;4990543;28;20026;-70
2022/10/09 01:08:44;;;;;;;7.47;4.78;;;;;;;11.35;73.41;100768.50;4990752;28;20457;-70
2022/10/09 01:11:34;;;;;;;8.45;4.57;;;;;;;11.24;72.91;100726.72;4990681;28;20088;-70
2022/10/09 01:14:02;;;;;;;9.13;4.90;;;;;;;11.63;72.84;100767.84;4990181;28;20544;-70
2022/10/09 01:16:34;;;;;;;8.65;4.40;;;;;;;11.74;72.99;100763.06;4990730;28;20034;-71
2022/10/09 01:19:24;;;;;;;8.82;4.70;;;;;;;11.86;72.17;100767.81;4990713;28;20025;-71
2022/10/09 01:22:14;;;;;;;8.23;4.85;;;;;;;11.80;71.94;100769.34;4990630;28;20053;-70
2022/10/09 01:24:46;;;;;;;6.70;4.15;;;;;;;11.79;69.53;100765.00;4994698;28;20042;-71
2022/10/09 01:27:23;;;;;;;9.40;5.22;;;;;;;11.74;70.05;100765.63;4994366;28;20485;-71
2022/10/09 01:29:54;;;;;;;9.50;4.78;;;;;;;11.61;70.38;100720.34;4993052;28;20042;-73
2022/10/09 01:32:25;;;;;;;8.95;4.55;;;;;;;11.91;70.96;100759.41;4994357;28;20420;-70
2022/10/09 01:34:52;;;;;;;7.78;4.90;;;;;;;11.88;71.09;100763.59;4993745;28;20456;-72
2022/10/09 01:37:20;;;;;;;11.43;4.88;;;;;;;11.58;71.46;100712.50;4994052;28;20030;-71
2022/10/09 01:39:47;;;;;;;9.07;4.78;;;;;;;11.94;71.56;100758.63;4994538;28;20104;-71
2022/10/09 01:42:15;;;;;;;13.85;4.72;;;;;;;11.98;71.15;100760.53;4994518;28;20500;-72
2022/10/09 01:44:41;;;;;;;7.30;4.40;;;;;;;11.73;71.40;100715.63;4994320;28;20026;-70
2022/10/09 01:47:14;;;;;;;8.18;4.38;;;;;;;11.69;71.79;100716.34;4994066;28;20034;-70
2022/10/09 01:49:49;;;;;;;11.52;4.40;;;;;;;11.69;71.96;100723.22;4993158;28;20030;-70
2022/10/09 01:52:42;;;;;;;8.82;4.95;;;;;;;11.95;72.08;100757.78;4994432;28;20041;-72
2022/10/09 01:55:26;;;;;;;9.93;4.30;;;;;;;11.94;71.98;100746.56;4994169;28;20022;-71
2022/10/09 01:58:07;;;;;;;15.38;4.68;;;;;;;11.75;71.50;100721.75;4993999;28;20565;-68
2022/10/09 02:00:41;;;;;;;7.70;4.78;;;;;;;11.96;71.60;100760.47;4994054;28;20085;-70
2022/10/09 02:03:10;;;;;;;9.43;4.50;;;;;;;11.95;71.48;100757.78;4994174;28;20027;-70
2022/10/09 02:05:37;;;;;;;6.50;4.68;;;;;;;11.92;71.45;100750.78;4994013;28;20037;-70
2022/10/09 02:08:03;;;;;;;7.88;4.43;;;;;;;11.98;71.61;100758.81;4994004;28;20023;-70
2022/10/09 02:10:31;;;;;;;9.68;4.15;;;;;;;11.88;70.89;100754.09;5009089;28;20026;-73
2022/10/09 02:12:58;;;;;;;12.55;4.78;;;;;;;11.91;69.17;100766.28;4994188;28;20049;-71
2022/10/09 02:15:30;;;;;;;8.27;4.40;;;;;;;11.72;69.86;100756.97;4994065;28;20061;-72
2022/10/09 02:18:02;;;;;;;6.78;4.00;;;;;;;11.25;69.49;100733.66;4993757;28;20027;-73
2022/10/09 02:20:34;;;;;;;9.98;4.68;;;;;;;11.26;69.54;100772.47;4993484;28;20033;-72
2022/10/09 02:23:03;;;;;;;11.90;4.63;;;;;;;11.00;70.48;100737.88;4993657;28;20038;-71
2022/10/09 02:25:28;;;;;;;9.45;4.60;;;;;;;10.97;71.53;100767.03;4993744;28;20030;-75
2022/10/09 02:27:55;;;;;;;11.20;5.05;;;;;;;10.92;72.31;100759.94;4993523;28;20053;-70
2022/10/09 02:30:25;;;;;;;9.95;4.63;;;;;;;10.96;72.72;100757.53;4993668;28;20030;-70
2022/10/09 02:32:54;;;;;;;10.77;5.07;;;;;;;11.13;73.36;100773.72;4993192;28;20129;-70
2022/10/09 02:35:20;;;;;;;8.70;4.57;;;;;;;11.03;74.18;100781.94;4993053;28;20041;-74
2022/10/09 02:37:47;;;;;;;9.27;5.25;;;;;;;10.94;75.02;100766.94;4993592;28;20117;-72
2022/10/09 02:40:13;;;;;;;7.03;4.47;;;;;;;10.88;75.11;100766.69;4993685;28;20061;-69
2022/10/09 02:42:39;;;;;;;9.00;5.03;;;;;;;10.89;74.70;100777.91;4993180;28;20030;-70
2022/10/09 02:45:05;;;;;;;8.07;4.50;;;;;;;10.84;74.57;100781.19;4993493;28;20030;-72
2022/10/09 02:47:30;;;;;;;7.68;4.50;;;;;;;10.95;73.96;100785.88;4993561;28;20030;-71
2022/10/09 02:49:56;;;;;;;8.30;4.40;;;;;;;10.99;73.55;100777.44;4993080;28;20513;-74
2022/10/09 02:52:21;;;;;;;10.95;4.78;;;;;;;11.00;74.62;100779.22;4992995;28;20117;-73
2022/10/09 02:54:46;;;;;;;9.70;5.10;;;;;;;10.94;75.63;100786.72;4992012;28;20121;-72
2022/10/09 02:57:12;;;;;;;7.90;4.70;;;;;;;10.89;75.27;100789.13;4993129;28;20027;-72
2022/10/09 02:59:37;;;;;;;9.38;4.80;;;;;;;10.86;74.96;100793.28;4993012;28;20030;-72
2022/10/09 03:02:03;;;;;;;7.00;4.35;;;;;;;10.70;74.29;100796.94;4992779;28;20034;-72
2022/10/09 03:04:28;;;;;;;8.63;4.80;;;;;;;10.32;74.52;100794.47;4992978;28;20400;-72
2022/10/09 03:06:53;;;;;;;10.65;4.95;;;;;;;10.06;74.95;100794.19;4993034;28;20485;-73
2022/10/09 03:09:19;;;;;;;12.30;4.78;;;;;;;10.01;75.52;100799.13;4992892;28;20053;-73
2022/10/09 03:11:44;;;;;;;11.07;4.85;;;;;;;10.08;75.43;100799.41;4992900;28;20027;-72
2022/10/09 03:14:10;;;;;;;8.85;5.00;;;;;;;10.05;75.70;100784.69;4992868;28;20034;-71
2022/10/09 03:16:35;;;;;;;9.73;4.80;;;;;;;9.98;75.48;100756.84;4992666;28;20116;-73
2022/10/09 03:19:00;;;;;;;11.27;5.65;;;;;;;10.37;75.78;100800.72;4992383;28;20038;-68
2022/10/09 03:21:27;;;;;;;10.00;4.97;;;;;;;10.34;75.59;100790.22;5007890;28;20037;-71
2022/10/09 03:23:53;;;;;;;9.38;4.30;;;;;;;10.52;75.13;100803.09;4992567;28;20041;-72
2022/10/09 03:26:25;;;;;;;11.02;4.82;;;;;;;10.47;74.76;100807.19;4992783;28;20405;-70
2022/10/09 03:28:52;;;;;;;6.30;4.00;;;;;;;10.41;74.90;100807.78;4991312;28;20035;-72
2022/10/09 03:31:19;;;;;;;9.07;4.78;;;;;;;10.22;75.60;100797.44;4992362;28;20193;-70
2022/10/09 03:33:45;;;;;;;11.20;4.80;;;;;;;9.90;75.87;100782.31;4992521;28;20113;-71
2022/10/09 03:36:11;;;;;;;12.10;4.90;;;;;;;10.01;76.38;100816.31;4992410;28;20117;-70
2022/10/09 03:38:36;;;;;;;7.25;4.80;;;;;;;9.86;76.67;100819.97;4992388;28;20026;-68
2022/10/09 03:41:03;;;;;;;10.65;4.40;;;;;;;9.85;76.65;100828.50;4992111;28;20042;-68
2022/10/09 03:43:29;;;;;;;14.00;4.97;;;;;;;9.82;76.82;100828.38;4992084;28;20030;-69
2022/10/09 03:45:55;;;;;;;8.30;4.80;;;;;;;9.78;76.65;100826.50;4991182;28;20409;-71
2022/10/09 03:48:20;;;;;;;11.23;5.10;;;;;;;9.57;76.34;100790.28;4992310;28;20030;-71
2022/10/09 03:50:46;;;;;;;9.52;5.10;;;;;;;9.61;75.91;100797.34;4992210;28;20033;-71
2022/10/09 03:53:12;;;;;;;7.45;5.45;;;;;;;9.75;75.32;100820.31;4991910;28;20030;-71
2022/10/09 03:55:38;;;;;;;7.43;5.00;;;;;;;9.75;74.16;100826.34;4991831;28;20030;-68
2022/10/09 03:58:04;;;;;;;9.45;5.15;;;;;;;9.55;73.96;100787.63;4992362;28;20117;-72
2022/10/09 04:00:29;;;;;;;9.27;4.90;;;;;;;9.71;74.05;100816.69;4991986;28;20034;-70
2022/10/09 04:02:55;;;;;;;10.80;5.43;;;;;;;9.82;74.63;100827.47;4991967;28;20045;-69
2022/10/09 04:05:20;;;;;;;8.82;4.72;;;;;;;9.84;75.87;100828.44;4991925;28;20034;-71
2022/10/09 04:07:46;;;;;;;10.75;4.85;;;;;;;9.82;76.32;100817.16;4991721;28;20030;-73
2022/10/09 04:10:11;;;;;;;8.98;4.38;;;;;;;9.83;76.99;100827.59;4991901;28;20037;-70
2022/10/09 04:12:37;;;;;;;9.00;4.60;;;;;;;9.82;77.20;100828.38;4991577;28;20037;-71
2022/10/09 04:15:03;;;;;;;10.68;4.75;;;;;;;9.82;76.99;100823.22;4991749;28;20033;-72
2022/10/09 04:17:29;;;;;;;9.02;5.25;;;;;;;9.68;75.96;100822.59;4989390;28;20062;-71
2022/10/09 04:19:54;;;;;;;8.80;5.20;;;;;;;9.39;76.05;100790.31;5020609;28;20480;-72
2022/10/09 04:22:19;;;;;;;9.13;5.72;;;;;;;9.48;76.44;100836.25;4991674;28;20110;-70
2022/10/09 04:24:45;;;;;;;13.98;5.45;;;;;;;9.35;76.78;100833.06;4991393;28;20041;-70
2022/10/09 04:27:10;;;;;;;17.00;5.93;;;;;;;9.15;77.44;100833.84;4991692;28;20030;-75
2022/10/09 04:29:36;;;;;;;12.77;5.13;;;;;;;9.25;77.79;100828.31;4973488;28;20034;-71
2022/10/09 04:32:01;;;;;;;10.70;5.03;;;;;;;9.37;79.14;100835.72;4971800;28;20125;-70
2022/10/09 04:34:26;;;;;;;7.05;4.55;;;;;;;9.45;79.05;100829.25;4972266;28;20019;-71
2022/10/09 04:36:52;;;;;;;7.32;4.80;;;;;;;9.59;78.69;100832.47;4972020;28;20031;-70
2022/10/09 04:39:17;;;;;;;6.75;5.10;;;;;;;9.61;79.03;100853.16;4972115;28;20058;-69
2022/10/09 04:41:43;;;;;;;9.43;5.50;;;;;;;9.46;79.91;100846.47;4976805;28;20097;-71
2022/10/09 04:44:08;;;;;;;10.00;5.53;;;;;;;9.33;80.68;100847.59;4983555;28;20076;-72
2022/10/09 04:46:34;;;;;;;7.78;5.43;;;;;;;9.28;81.02;100849.03;4986356;28;20073;-71
2022/10/09 04:48:59;;;;;;;13.07;7.40;;;;;;;8.96;81.26;100806.28;4985802;28;20162;-70
2022/10/09 04:51:25;;;;;;;18.42;10.10;;;;;;;9.28;81.56;100850.75;4980685;28;20019;-69
2022/10/09 04:53:50;;;;;;;10.45;7.10;;;;;;;9.36;81.24;100849.44;4977858;28;20037;-71
2022/10/09 04:56:18;;;;;;;11.98;5.75;;;;;;;9.48;80.84;100855.19;4972704;28;20035;-69
2022/10/09 04:58:44;;;;;;;13.65;5.88;;;;;;;9.37;81.49;100858.91;4975855;28;20050;-72
2022/10/09 05:01:31;;;;;;;11.70;5.80;;;;;;;9.40;81.70;100853.94;4975551;28;20038;-70
2022/10/09 05:03:57;;;;;;;9.38;5.45;;;;;;;9.37;81.26;100834.03;4975849;28;20106;-67
2022/10/09 05:06:23;;;;;;;8.80;5.20;;;;;;;9.43;81.28;100859.22;4976105;28;20042;-66
2022/10/09 05:08:49;;;;;;;19.35;6.15;;;;;;;9.46;81.65;100858.47;4983887;28;20045;-69
2022/10/09 05:11:21;;;;;;;15.38;5.60;;;;;;;9.50;81.40;100866.44;4993254;28;20038;-68
2022/10/09 05:13:49;;;;;;;9.05;5.40;;;;;;;9.58;81.12;100860.75;4973125;28;20039;-69
2022/10/09 05:16:20;;;;;;;8.95;5.80;;;;;;;9.51;81.58;100855.31;4977787;28;20038;-68
2022/10/09 05:18:54;;;;;;;12.15;5.60;;;;;;;9.66;81.30;100867.16;4992648;28;20113;-71
2022/10/09 05:21:20;;;;;;;12.65;5.82;;;;;;;9.73;80.92;100856.31;4985819;28;20058;-71
2022/10/09 05:23:46;;;;;;;9.75;5.25;;;;;;;9.71;81.02;100871.72;4986123;28;20140;-71
2022/10/09 05:26:14;;;;;;;12.90;5.53;;;;;;;9.73;81.08;100874.34;4994552;28;20064;-71
2022/10/09 05:28:40;;;;;;;11.10;5.70;;;;;;;9.70;81.03;100861.34;4994455;28;20473;-71
2022/10/09 05:31:07;;;;;;;14.02;6.03;;;;;;;9.79;81.18;100874.63;4994645;28;20034;-70
2022/10/09 05:33:32;;;;;;;14.55;6.32;;;;;;;9.64;82.15;100863.63;5009457;28;20504;-70
2022/10/09 05:36:00;;;;;;;9.68;6.40;;;;;;;9.81;81.92;100878.19;4994641;28;20034;-69
2022/10/09 05:38:27;;;;;;;9.60;5.80;;;;;;;9.91;81.40;100870.91;4994478;28;20034;-69
2022/10/09 05:40:58;;;;;;;10.32;5.57;;;;;;;10.08;81.22;100881.97;4994570;28;20030;-70
2022/10/09 05:43:26;;;;;;;11.60;5.72;;;;;;;10.19;80.96;100889.41;4994217;28;20054;-69
2022/10/09 05:45:52;;;;;;;9.43;5.60;;;;;;;10.36;80.88;100885.00;4994308;28;20036;-70
2022/10/09 05:48:18;;;;;;;8.63;5.72;;;;;;;10.47;80.93;100882.03;4994188;28;20034;-70
2022/10/09 05:50:44;;;;;;;11.80;5.88;;;;;;;10.66;80.65;100874.25;4994006;28;20405;-70
2022/10/09 05:53:10;;;;;;;14.10;6.35;;;;;;;10.82;80.71;100893.88;4994518;28;20031;-70
2022/10/09 05:55:36;;;;;;;9.00;6.57;;;;;;;10.93;80.69;100894.34;4994352;28;20033;-71
2022/10/09 05:58:02;;;;;;;13.05;7.00;;;;;;;11.07;80.87;100892.31;4992003;28;20485;-70
2022/10/09 06:00:29;;;;;;;11.70;7.15;;;;;;;11.20;80.74;100887.66;4994042;28;20027;-70
2022/10/09 06:02:54;;;;;;;12.65;6.40;;;;;;;11.33;80.86;100885.63;4994027;28;20023;-71
2022/10/09 06:05:20;;;;;;;14.82;7.47;;;;;;;11.59;80.75;100885.81;5008961;28;20030;-71
2022/10/09 06:07:46;;;;;;;12.68;7.07;;;;;;;11.72;80.64;100886.28;5008577;28;20034;-71
2022/10/09 06:10:12;;;;;;;11.10;7.82;;;;;;;11.95;80.25;100892.31;4993419;28;20552;-71
2022/10/09 06:12:37;;;;;;;13.80;7.65;;;;;;;12.20;78.89;100893.28;4993321;28;20547;-70
2022/10/09 06:15:03;;;;;;;12.82;7.82;;;;;;;12.19;78.02;100865.66;4993703;28;20401;-70
2022/10/09 06:17:29;;;;;;;11.13;6.90;;;;;;;12.53;77.35;100895.34;4993901;28;20027;-71
2022/10/09 06:19:54;;;;;;;13.18;7.30;;;;;;;12.69;77.37;100895.06;4994243;28;20366;-70
2022/10/09 06:22:19;;;;;;;17.23;7.15;;;;;;;12.70;76.43;100857.97;4993616;28;20054;-70
2022/10/09 06:24:45;;;;;;;12.70;7.82;;;;;;;13.07;75.32;100905.88;4993686;28;20033;-69
2022/10/09 06:27:12;;;;;;;14.77;7.97;;;;;;;13.16;74.36;100907.91;4993434;28;20470;-70
2022/10/09 06:29:38;;;;;;;13.43;6.85;;;;;;;13.20;74.39;100903.69;4993488;28;20032;-70
2022/10/09 06:32:03;;;;;;;10.68;7.18;;;;;;;13.15;73.62;100877.63;4993689;28;20129;-70
2022/10/09 06:34:30;;;;;;;13.40;8.23;;;;;;;13.41;73.68;100908.75;4993319;28;20022;-70
2022/10/09 06:36:55;;;;;;;11.50;7.20;;;;;;;13.51;73.72;100912.53;4993341;28;20447;-71
2022/10/09 06:39:21;;;;;;;11.48;6.97;;;;;;;13.36;73.55;100869.66;4993263;28;20080;-68
2022/10/09 06:41:47;;;;;;;9.38;6.60;;;;;;;13.80;72.93;100923.78;4993512;28;20029;-70
2022/10/09 06:44:15;;;;;;;11.43;6.55;;;;;;;13.91;72.31;100914.63;5008420;28;20495;-70
2022/10/09 06:46:41;;;;;;;11.55;7.10;;;;;;;13.88;72.81;100924.03;4993298;28;20037;-71
2022/10/09 06:49:07;;;;;;;13.40;6.70;;;;;;;13.73;72.60;100883.81;4993124;28;20026;-72
2022/10/09 06:51:34;;;;;;;10.55;6.38;;;;;;;14.15;72.33;100923.13;4992978;28;20046;-72
2022/10/09 06:54:02;;;;;;;10.40;6.53;;;;;;;14.37;71.30;100920.28;4992909;28;20455;-70
2022/10/09 06:56:30;;;;;;;12.50;6.03;;;;;;;14.62;70.57;100927.91;5008161;28;20034;-71
2022/10/09 06:58:59;;;;;;;11.27;5.93;;;;;;;14.79;69.81;100925.78;4993388;28;20030;-73
2022/10/09 07:01:29;;;;;;;10.13;6.00;;;;;;;14.95;68.70;100917.56;4992913;28;20481;-72
2022/10/09 07:03:56;;;;;;;11.02;6.35;;;;;;;14.72;69.17;100875.38;4992781;28;20034;-71
2022/10/09 07:06:25;;;;;;;10.07;5.97;;;;;;;14.96;69.00;100923.66;4993137;28;20028;-71
2022/10/09 07:08:55;;;;;;;11.48;5.38;;;;;;;15.02;69.06;100926.41;4992955;28;20038;-72
2022/10/09 07:11:23;;;;;;;12.43;6.03;;;;;;;15.19;68.77;100914.72;4993291;28;20049;-72
2022/10/09 07:13:52;;;;;;;10.10;5.68;;;;;;;15.33;67.11;100889.03;4992611;28;20026;-72
2022/10/09 07:16:25;;;;;;;9.37;5.97;;;;;;;15.74;66.66;100910.78;4992544;28;20643;-71
2022/10/09 07:18:51;;;;;;;9.15;5.60;;;;;;;15.93;65.96;100910.41;4992838;28;20022;-71
2022/10/09 07:21:17;;;;;;;11.70;5.38;;;;;;;16.19;64.61;100915.31;4992553;28;20460;-72
2022/10/09 07:23:43;;;;;;;11.48;5.35;;;;;;;16.42;64.06;100913.16;4992517;28;20073;-73
2022/10/09 07:26:16;;;;;;;10.70;5.50;;;;;;;16.38;64.45;100915.69;4992908;28;20409;-72
2022/10/09 07:28:42;;;;;;;24.05;7.30;;;;;;;16.36;63.75;100919.97;4992690;28;20026;-72
2022/10/09 07:31:08;;;;;;;12.45;5.43;;;;;;;16.48;63.67;100907.19;4992037;28;20133;-73
2022/10/09 07:33:37;;;;;;;6.78;4.63;;;;;;;16.61;62.53;100909.19;4992542;28;20035;-72
2022/10/09 07:36:04;;;;;;;9.43;4.90;;;;;;;16.75;62.31;100909.44;5007404;28;20030;-72
2022/10/09 07:38:29;;;;;;;8.00;5.00;;;;;;;16.81;62.64;100917.38;4992386;28;20046;-73
2022/10/09 07:41:02;;;;;;;12.70;5.45;;;;;;;16.84;61.98;100913.09;4992378;28;20066;-71
2022/10/09 07:43:28;;;;;;;7.95;4.43;;;;;;;16.83;61.83;100917.41;4991959;28;20029;-71
2022/10/09 07:45:58;;;;;;;8.73;4.80;;;;;;;16.83;61.46;100883.50;4992400;28;20031;-70
2022/10/09 07:48:24;;;;;;;9.30;4.68;;;;;;;16.99;61.63;100929.03;4992083;28;20022;-70
2022/10/09 07:50:49;;;;;;;8.30;4.40;;;;;;;17.11;61.37;100925.78;4992230;28;20038;-70
2022/10/09 07:53:15;;;;;;;7.35;4.75;;;;;;;17.17;61.26;100923.28;4991806;28;20037;-70
2022/10/09 07:55:45;;;;;;;7.32;4.45;;;;;;;17.11;60.90;100902.31;4992137;28;20030;-70
2022/10/09 07:58:11;;;;;;;8.48;4.70;;;;;;;17.33;60.71;100921.78;4991643;28;20101;-68
2022/10/09 08:00:36;;;;;;;9.43;4.40;;;;;;;17.40;59.83;100921.03;4992088;28;20493;-70
2022/10/09 08:03:01;;;;;;;6.18;4.57;;;;;;;17.53;60.17;100919.47;4991546;28;20065;-71
2022/10/09 08:05:27;;;;;;;12.68;4.60;;;;;;;17.57;59.82;100910.88;4992073;28;20445;-71
2022/10/09 08:07:52;;;;;;;18.50;5.00;;;;;;;17.87;59.21;100912.16;4991893;28;20026;-70
2022/10/09 08:10:18;;;;;;;8.95;4.00;;;;;;;17.98;58.11;100912.34;4991877;28;20080;-70
2022/10/09 08:12:44;;;;;;;8.07;4.40;;;;;;;17.92;59.35;100880.91;4991406;28;20042;-71
2022/10/09 08:15:09;;;;;;;12.10;4.47;;;;;;;18.31;58.22;100907.53;4991662;28;20030;-71
2022/10/09 08:17:35;;;;;;;8.27;4.80;;;;;;;18.19;59.24;100863.81;4991515;28;20101;-71
2022/10/09 08:20:01;;;;;;;7.82;3.90;;;;;;;18.49;58.11;100897.31;4991525;28;20399;-71
2022/10/09 08:22:26;;;;;;;7.80;3.92;;;;;;;18.73;56.21;100904.53;4991781;28;20503;-70
2022/10/09 08:24:51;;;;;;;9.82;4.43;;;;;;;18.94;55.73;100892.56;4991400;28;20413;-71
2022/10/09 08:27:17;;;;;;;7.70;4.15;;;;;;;19.12;54.83;100907.53;4991335;28;20412;-72
2022/10/09 08:29:42;;;;;;;7.82;4.13;;;;;;;19.14;54.89;100892.72;4991561;28;20477;-68
2022/10/09 08:32:08;;;;;;;8.73;4.32;;;;;;;19.30;54.42;100895.47;4990782;28;20042;-71
2022/10/09 08:34:33;;;;;;;7.30;3.92;;;;;;;19.50;53.89;100900.84;4988887;28;20508;-70
2022/10/09 08:36:59;;;;;;;10.55;4.55;;;;;;;19.38;52.64;100858.00;4986257;28;20030;-69
2022/10/09 08:39:24;;;;;;;6.30;3.92;;;;;;;19.21;53.50;100826.47;4986502;28;20038;-67
2022/10/09 08:41:55;;;;;;;9.60;4.00;;;;;;;19.74;52.24;100887.03;4984851;28;20053;-68
2022/10/09 08:44:41;;;;;;;11.18;3.92;;;;;;;19.75;53.71;100891.41;4984840;28;20026;-69
2022/10/09 08:47:09;;;;;;;7.35;3.90;;;;;;;19.71;54.14;100897.50;4982382;28;20034;-70
2022/10/09 08:50:00;;;;;;;7.95;4.20;;;;;;;19.86;53.23;100886.25;4982554;28;20027;-70
2022/10/09 08:52:51;;;;;;;8.45;4.30;;;;;;;20.03;51.35;100883.72;4986758;28;20070;-70
2022/10/09 08:55:27;;;;;;;10.18;5.63;;;;;;;20.15;51.58;100886.41;4987274;28;20049;-70
2022/10/09 08:57:55;;;;;;;13.60;5.80;;;;;;;20.32;50.87;100873.34;4982784;28;20030;-72
2022/10/09 09:00:23;;;;;;;8.65;4.20;;;;;;;20.44;51.13;100884.75;4982524;28;20046;-70
2022/10/09 09:03:18;;;;;;;6.32;3.88;;;;;;;20.54;53.66;100881.28;4982086;28;20448;-70
2022/10/09 09:05:49;;;;;;;8.02;4.30;;;;;;;20.53;52.50;100856.78;4948366;28;20198;-69
2022/10/09 09:08:24;;;;;;;7.95;4.43;;;;;;;20.79;51.96;100881.38;4941862;29;20923;-70
2022/10/09 09:10:56;;;;;;;5.13;3.28;;;;;;;20.68;49.23;100878.69;4949540;28;20044;-69
2022/10/09 09:13:55;;;;;;;6.68;3.92;;;;;;;20.50;50.08;100877.78;4933077;29;20046;-67
2022/10/09 09:16:51;;;;;;;5.50;3.75;;;;;;;20.48;49.03;100866.38;4949134;28;20067;-69
2022/10/09 09:19:38;;;;;;;5.68;3.83;;;;;;;20.79;51.23;100866.47;4938608;29;20047;-70
2022/10/09 09:22:08;;;;;;;18.30;4.63;;;;;;;21.04;48.23;100866.50;4949376;29;20023;-69
2022/10/09 09:24:43;;;;;;;7.82;4.13;;;;;;;21.30;47.68;100868.25;4949336;29;20502;-69
2022/10/09 09:27:15;;;;;;;8.65;3.60;;;;;;;21.41;47.79;100860.34;4949086;29;20035;-69
2022/10/09 09:29:49;;;;;;;8.88;3.67;;;;;;;21.54;45.45;100861.19;4949425;29;20053;-69
2022/10/09 09:32:20;;;;;;;5.50;3.70;;;;;;;21.59;45.90;100864.72;4949105;28;20051;-73
2022/10/09 09:34:46;;;;;;;7.65;3.72;;;;;;;21.86;45.32;100858.50;4949350;29;20090;-72
2022/10/09 09:37:12;;;;;;;5.75;4.10;;;;;;;21.96;46.42;100830.44;4949623;28;20044;-73
2022/10/09 09:39:39;;;;;;;6.88;4.18;;;;;;;21.80;45.34;100845.41;4949426;29;20023;-75
2022/10/09 09:42:08;;;;;;;6.72;4.00;;;;;;;22.09;45.06;100850.56;4957388;28;20088;-75
2022/10/09 09:44:36;;;;;;;5.18;4.03;;;;;;;22.03;44.89;100850.56;4983557;28;20030;-76
2022/10/09 09:47:02;;;;;;;7.43;3.60;;;;;;;22.10;46.16;100851.41;4985424;28;20045;-70
2022/10/09 09:49:28;;;;;;;8.25;3.65;;;;;;;21.80;44.66;100858.53;4983835;28;20030;-70
2022/10/09 09:51:57;;;;;;;5.18;3.50;;;;;;;21.87;47.69;100849.75;4983652;28;20038;-69
2022/10/09 09:54:25;;;;;;;5.10;3.65;;;;;;;22.05;45.94;100851.41;4985433;28;20560;-69
2022/10/09 09:56:54;;;;;;;6.68;3.95;;;;;;;22.03;45.01;100850.56;4987889;28;20034;-70
2022/10/09 09:59:25;;;;;;;8.35;4.18;;;;;;;22.07;46.09;100856.66;4984948;28;20204;-70
2022/10/09 10:02:00;;;;;;;6.22;3.55;;;;;;;21.95;44.48;100853.22;4978730;28;20039;-69
2022/10/09 10:04:27;;;;;;;5.65;3.90;;;;;;;22.14;47.19;100846.13;4977726;28;20043;-69
2022/10/09 10:06:53;;;;;;;5.60;3.72;;;;;;;22.24;46.16;100844.34;4979091;28;20031;-68
2022/10/09 10:09:19;;;;;;;8.25;4.00;;;;;;;22.28;44.60;100825.03;4980581;28;20060;-66
2022/10/09 10:12:00;;;;;;;9.50;3.95;;;;;;;22.53;45.39;100837.16;4991034;28;20069;-73
2022/10/09 10:14:27;;;;;;;7.22;4.00;;;;;;;22.64;43.89;100839.72;4987231;28;20026;-68
2022/10/09 10:16:54;;;;;;;6.00;3.83;;;;;;;22.76;42.80;100831.75;4988838;28;20026;-70
2022/10/09 10:19:22;;;;;;;6.32;4.05;;;;;;;22.71;42.80;100833.53;4993432;28;20412;-68
2022/10/09 10:21:55;;;;;;;8.05;4.00;;;;;;;22.36;43.31;100832.84;4984482;28;20033;-69
2022/10/09 10:24:26;;;;;;;11.57;4.53;;;;;;;22.69;42.89;100828.31;4993386;28;20034;-69
2022/10/09 10:27:08;;;;;;;6.00;3.78;;;;;;;23.00;43.64;100820.13;4993519;28;20030;-71
2022/10/09 10:29:41;;;;;;;6.60;4.07;;;;;;;23.24;41.50;100819.06;5008736;28;20041;-69
2022/10/09 10:32:13;;;;;;;5.80;3.53;;;;;;;23.38;43.19;100807.53;4993344;28;20085;-70
2022/10/09 10:35:01;;;;;;;6.88;3.80;;;;;;;23.33;42.66;100819.84;4993496;28;20489;-70
2022/10/09 10:37:41;;;;;;;5.78;3.42;;;;;;;22.72;41.68;100820.38;4989128;28;20066;-70
2022/10/09 10:40:19;;;;;;;5.28;4.00;;;;;;;22.82;41.44;100807.13;4987097;28;20097;-69
2022/10/09 10:43:05;;;;;;;5.65;3.70;;;;;;;23.00;41.03;100808.72;4984528;28;20036;-69
2022/10/09 10:45:40;;;;;;;6.18;3.88;;;;;;;23.25;41.45;100802.38;4991880;28;20405;-69
2022/10/09 10:48:14;;;;;;;6.78;3.63;;;;;;;23.51;41.56;100795.94;4988249;28;20033;-68
2022/10/09 10:50:53;;;;;;;6.80;3.60;;;;;;;23.76;42.54;100787.72;4985537;28;20028;-68
2022/10/09 10:53:37;;;;;;;6.13;3.65;;;;;;;23.87;39.52;100785.81;4985155;28;20508;-67
2022/10/09 10:56:10;;;;;;;6.40;3.78;;;;;;;23.90;41.49;100784.91;4981839;28;20119;-70
2022/10/09 10:58:41;;;;;;;7.18;3.88;;;;;;;23.52;41.10;100794.19;4997680;28;20042;-70
2022/10/09 11:01:35;;;;;;;11.43;3.70;;;;;;;23.67;42.00;100791.34;4992104;28;20474;-68
2022/10/09 11:04:38;;;;;;;6.43;3.67;;;;;;;23.80;39.71;100788.56;4984068;28;20034;-71
2022/10/09 11:07:17;;;;;;;7.03;3.80;;;;;;;23.81;41.32;100787.69;4984156;28;20027;-67
2022/10/09 11:09:44;;;;;;;;;;;;;;;23.81;40.67;100778.00;4981920;28;20034;-68
2022/10/09 11:12:28;;;;;;;5.47;3.72;;;;;;;23.79;40.07;100773.63;4983756;28;19924;-68
2022/10/09 11:15:07;;;;;;;5.07;3.42;;;;;;;23.48;39.39;100772.25;5006122;28;20022;-70
2022/10/09 11:17:45;;;;;;;5.85;3.60;;;;;;;23.16;40.48;100770.00;4984014;28;20038;-68
2022/10/09 11:20:15;;;;;;;4.80;3.60;;;;;;;23.17;40.15;100766.47;4986543;28;20054;-67
2022/10/09 11:23:00;;;;;;;7.95;3.95;;;;;;;23.46;42.38;100774.03;4981897;28;20031;-69
2022/10/09 11:25:59;;;;;;;9.77;3.55;;;;;;;23.69;41.95;100762.34;4983975;28;20564;-69
2022/10/09 11:28:51;;;;;;;6.57;3.38;;;;;;;23.96;39.00;100765.53;4961829;28;20047;-71
2022/10/09 11:31:28;;;;;;;5.82;4.05;;;;;;;24.16;38.00;100747.69;4955898;28;20137;-70
2022/10/09 11:34:02;;;;;;;8.80;4.05;;;;;;;24.30;37.34;100747.47;4951040;28;20506;-71
2022/10/09 11:36:35;;;;;;;8.68;3.55;;;;;;;24.37;37.71;100751.75;4951018;28;20050;-68